createdAt,value
2019-04-14T00:01:45.501Z,81.07
2019-04-14T00:06:50.375Z,60.73
2019-04-14T00:11:54.790Z,61.97
2019-04-14T00:16:59.639Z,61.97
2019-04-14T00:22:03.445Z,60.40
2019-04-14T00:27:08.442Z,59.73
2019-04-14T00:32:12.403Z,58.20
2019-04-14T00:37:20.580Z,58.10
2019-04-14T00:42:28.372Z,55.65
2019-04-14T00:47:48.394Z,57.90
2019-04-14T00:52:41.579Z,69.92
2019-04-14T00:57:46.311Z,79.20
2019-04-14T01:02:50.104Z,75.57
2019-04-14T01:07:54.413Z,71.70
2019-04-14T01:12:58.253Z,61.57
2019-04-14T01:18:01.921Z,52.87
2019-04-14T01:23:06.334Z,52.53
2019-04-14T01:28:11.240Z,54.17
2019-04-14T01:33:16.154Z,50.27
2019-04-14T01:38:21.114Z,49.50
2019-04-14T01:43:25.649Z,51.53
2019-04-14T01:48:30.049Z,46.87
2019-04-14T01:53:42.202Z,46.80
2019-04-14T01:58:47.543Z,47.40
2019-04-14T02:03:52.000Z,55.10
2019-04-14T02:08:56.857Z,49.93
2019-04-14T02:14:01.593Z,51.47
2019-04-14T02:19:06.612Z,52.00
2019-04-14T02:24:11.372Z,43.07
2019-04-14T02:29:15.077Z,45.77
2019-04-14T02:39:54.064Z,45.20
2019-04-14T02:44:59.995Z,44.90
2019-04-14T02:49:56.574Z,44.00
2019-04-14T02:55:04.769Z,43.97
2019-04-14T03:00:16.672Z,42.17
2019-04-14T03:10:28.095Z,45.83
2019-04-14T03:15:31.827Z,45.47
2019-04-14T03:20:32.251Z,45.40
2019-04-14T03:25:43.004Z,44.88
2019-04-14T03:36:50.323Z,45.20
2019-04-14T03:41:17.449Z,46.18
2019-04-14T03:51:28.355Z,45.27
2019-04-14T03:56:09.170Z,43.63
2019-04-14T04:01:10.518Z,44.73
2019-04-14T04:06:14.256Z,44.90
2019-04-14T04:11:17.906Z,41.77
2019-04-14T04:16:24.432Z,42.43
2019-04-14T04:21:29.823Z,43.92
2019-04-14T04:26:38.611Z,43.83
2019-04-14T04:31:50.395Z,43.43
2019-04-14T04:37:12.794Z,43.57
2019-04-14T04:42:17.561Z,44.23
2019-04-14T04:47:21.319Z,42.67
2019-04-14T04:52:25.759Z,43.70
2019-04-14T04:57:30.434Z,45.57
2019-04-14T05:02:35.273Z,44.70
2019-04-14T05:07:38.918Z,44.47
2019-04-14T05:12:45.542Z,43.37
2019-04-14T05:17:49.924Z,42.48
2019-04-14T05:22:53.489Z,42.93
2019-04-14T05:27:57.994Z,47.30
2019-04-14T05:33:02.997Z,57.80
2019-04-14T05:38:06.716Z,63.93
2019-04-14T05:43:11.352Z,46.23
2019-04-14T05:48:16.094Z,47.90
2019-04-14T05:53:19.751Z,48.03
2019-04-14T05:58:23.494Z,48.43
2019-04-14T06:03:27.778Z,45.47
2019-04-14T06:08:31.371Z,46.00
2019-04-14T06:13:34.928Z,45.37
2019-04-14T06:18:38.554Z,47.37
2019-04-14T06:23:42.113Z,48.20
2019-04-14T06:28:45.683Z,48.80
2019-04-14T06:33:50.932Z,52.13
2019-04-14T06:39:12.370Z,48.83
2019-04-14T06:44:15.980Z,49.50
2019-04-14T06:49:19.651Z,49.57
2019-04-14T06:54:23.378Z,53.93
2019-04-14T06:59:27.000Z,53.07
2019-04-14T07:04:30.599Z,53.27
2019-04-14T07:09:34.205Z,53.30
2019-04-14T07:14:37.770Z,51.03
2019-04-14T07:19:41.441Z,46.23
2019-04-14T07:24:45.004Z,48.20
2019-04-14T07:29:53.230Z,48.97
2019-04-14T07:35:14.794Z,48.63
2019-04-14T07:40:26.682Z,46.90
2019-04-14T07:45:50.014Z,47.40
2019-04-14T07:51:13.591Z,48.58
2019-04-14T07:56:18.912Z,48.43
2019-04-14T08:01:25.950Z,55.90
2019-04-14T08:06:29.611Z,53.33
2019-04-14T08:11:33.218Z,49.57
2019-04-14T08:16:36.793Z,50.17
2019-04-14T08:21:40.517Z,50.73
2019-04-14T08:26:44.294Z,51.67
2019-04-14T08:31:47.981Z,53.47
2019-04-14T08:36:51.621Z,55.83
2019-04-14T08:41:56.994Z,55.17
2019-04-14T08:47:14.422Z,56.37
2019-04-14T08:52:19.692Z,54.27
2019-04-14T08:57:43.373Z,55.73
2019-04-14T09:02:51.563Z,56.03
2019-04-14T09:07:59.591Z,55.47
2019-04-14T09:13:03.197Z,54.23
2019-04-14T09:18:06.749Z,54.37
2019-04-14T09:23:10.358Z,54.23
2019-04-14T09:28:14.039Z,54.40
2019-04-14T09:33:17.886Z,53.47
2019-04-14T09:38:21.477Z,53.80
2019-04-14T09:43:25.124Z,53.73
2019-04-14T09:48:28.850Z,53.57
2019-04-14T09:53:32.555Z,54.50
2019-04-14T09:58:36.164Z,54.27
2019-04-14T10:03:39.743Z,56.88
2019-04-14T10:08:43.400Z,55.37
2019-04-14T10:13:47.022Z,54.80
2019-04-14T10:18:50.701Z,55.03
2019-04-14T10:23:54.288Z,54.47
2019-04-14T10:28:57.973Z,56.83
2019-04-14T10:34:01.553Z,57.03
2019-04-14T10:39:07.044Z,56.93
2019-04-14T10:44:10.698Z,57.37
2019-04-14T10:49:14.419Z,57.13
2019-04-14T10:54:18.063Z,56.07
2019-04-14T10:59:21.912Z,58.60
2019-04-14T11:04:25.500Z,56.37
2019-04-14T11:09:29.193Z,57.57
2019-04-14T11:14:32.828Z,59.93
2019-04-14T11:19:36.451Z,60.23
2019-04-14T11:24:40.092Z,59.80
2019-04-14T11:29:43.760Z,59.93
2019-04-14T11:35:01.108Z,60.80
2019-04-14T11:40:08.042Z,61.42
2019-04-14T11:45:11.757Z,61.83
2019-04-14T11:50:15.505Z,61.53
2019-04-14T11:55:19.233Z,63.33
2019-04-14T12:00:30.943Z,63.17
2019-04-14T12:05:51.612Z,62.40
2019-04-14T12:10:55.441Z,61.63
2019-04-14T12:15:59.596Z,61.97
2019-04-14T12:21:03.557Z,62.83
2019-04-14T12:26:07.202Z,62.47
2019-04-14T12:31:11.372Z,62.10
2019-04-14T12:36:15.197Z,62.77
2019-04-14T12:41:24.177Z,62.20
2019-04-14T12:46:35.073Z,62.80
2019-04-14T12:51:40.302Z,61.53
2019-04-14T12:56:43.988Z,63.73
2019-04-14T13:02:01.933Z,62.77
2019-04-14T13:07:05.704Z,64.30
2019-04-14T13:12:10.438Z,62.37
2019-04-14T13:17:15.317Z,61.77
2019-04-14T13:22:18.973Z,63.30
2019-04-14T13:27:23.335Z,64.80
2019-04-14T13:32:35.704Z,61.27
2019-04-14T13:37:32.465Z,63.93
2019-04-14T13:42:36.061Z,63.17
2019-04-14T13:47:39.717Z,63.33
2019-04-14T13:52:46.991Z,63.10
2019-04-14T13:57:48.668Z,62.83
2019-04-14T14:02:52.252Z,60.40
2019-04-14T14:07:55.925Z,61.63
2019-04-14T14:13:01.274Z,59.50
2019-04-14T14:18:21.879Z,60.33
2019-04-14T14:23:43.391Z,60.47
2019-04-14T14:28:47.062Z,58.73
2019-04-14T14:33:50.740Z,58.47
2019-04-14T14:38:54.533Z,58.63
2019-04-14T14:43:58.344Z,58.93
2019-04-14T14:49:03.758Z,57.20
2019-04-14T14:54:07.717Z,55.07
2019-04-14T14:59:11.280Z,54.23
2019-04-14T15:04:15.046Z,55.33
2019-04-14T15:09:18.775Z,55.27
2019-04-14T15:14:23.119Z,53.30
2019-04-14T15:19:26.771Z,53.10
2019-04-14T15:24:30.536Z,54.40
2019-04-14T15:29:34.165Z,54.00
2019-04-14T15:34:37.812Z,51.97
2019-04-14T15:39:41.472Z,52.27
2019-04-14T15:44:45.177Z,51.60
2019-04-14T15:49:48.849Z,51.03
2019-04-14T15:54:52.555Z,51.30
2019-04-14T16:00:00.488Z,68.27
2019-04-14T16:05:12.459Z,52.97
2019-04-14T16:10:26.226Z,56.33
2019-04-14T16:15:31.580Z,52.67
2019-04-14T16:20:37.638Z,62.14
2019-04-14T16:25:42.956Z,56.17
2019-04-14T16:30:53.853Z,56.08
2019-04-14T16:35:57.775Z,51.53
2019-04-14T16:41:01.404Z,53.85
2019-04-14T16:46:05.146Z,58.33
2019-04-14T16:51:10.463Z,66.82
2019-04-14T16:56:18.777Z,61.90
2019-04-14T17:01:26.897Z,59.73
2019-04-14T17:06:30.725Z,58.53
2019-04-14T17:11:34.518Z,53.13
2019-04-14T17:16:56.215Z,53.60
2019-04-14T17:22:01.561Z,50.23
2019-04-14T17:27:06.831Z,52.97
2019-04-14T17:32:28.778Z,52.90
2019-04-14T17:37:50.520Z,50.43
2019-04-14T17:42:58.973Z,52.20
2019-04-14T17:48:07.140Z,58.70
2019-04-14T17:53:12.532Z,59.13
2019-04-14T17:58:17.901Z,63.10
2019-04-14T18:03:32.198Z,56.33
2019-04-14T18:08:53.876Z,54.73
2019-04-14T18:14:11.478Z,54.40
2019-04-14T18:19:28.469Z,53.98
2019-04-14T18:24:41.641Z,56.55
2019-04-14T18:29:41.466Z,57.87
2019-04-14T18:34:46.846Z,55.17
2019-04-14T18:40:07.274Z,53.50
2019-04-14T18:45:19.586Z,53.73
2019-04-14T18:50:25.831Z,53.57
2019-04-14T18:55:49.558Z,52.77
2019-04-14T19:00:55.233Z,55.50
2019-04-14T19:05:59.224Z,58.80
2019-04-14T19:11:13.646Z,51.95
2019-04-14T19:16:19.375Z,82.80
2019-04-14T19:21:24.637Z,53.30
2019-04-14T19:26:28.568Z,54.23
2019-04-14T19:31:32.493Z,57.97
2019-04-14T19:36:37.612Z,52.30
2019-04-14T19:41:41.352Z,77.67
2019-04-14T19:46:45.387Z,53.13
2019-04-14T19:51:49.065Z,52.23
2019-04-14T19:56:52.735Z,52.90
2019-04-14T20:01:56.500Z,55.47
2019-04-14T20:07:00.167Z,52.50
2019-04-14T20:12:04.068Z,50.27
2019-04-14T20:17:09.406Z,62.47
2019-04-14T20:22:21.070Z,55.92
2019-04-14T20:27:26.437Z,54.63
2019-04-14T20:32:31.709Z,50.37
2019-04-14T20:37:35.374Z,51.90
2019-04-14T20:42:38.965Z,47.43
2019-04-14T20:47:42.680Z,47.07
2019-04-14T20:52:46.267Z,60.87
2019-04-14T20:57:49.941Z,46.00
2019-04-14T21:03:11.635Z,45.40
2019-04-14T21:08:19.651Z,45.70
2019-04-14T21:13:27.833Z,45.73
2019-04-14T21:18:33.089Z,44.77
2019-04-14T21:23:41.134Z,43.85
2019-04-14T21:28:52.439Z,42.90
2019-04-14T21:34:16.337Z,43.50
2019-04-14T21:39:40.505Z,42.67
2019-04-14T21:44:43.395Z,41.60
2019-04-14T21:49:47.064Z,42.73
2019-04-14T21:54:50.716Z,42.17
2019-04-14T21:59:56.023Z,41.60
2019-04-14T22:05:04.017Z,42.80
2019-04-14T22:10:12.862Z,50.50
2019-04-14T22:15:16.892Z,43.77
2019-04-14T22:20:20.478Z,44.50
2019-04-14T22:25:24.515Z,41.80
2019-04-14T22:30:28.227Z,43.23
2019-04-14T22:35:31.900Z,41.67
2019-04-14T22:40:36.474Z,41.68
2019-04-14T22:45:40.081Z,43.53
2019-04-14T22:50:43.729Z,43.50
2019-04-14T22:55:47.441Z,41.23
2019-04-14T23:00:52.853Z,39.20
2019-04-14T23:06:00.847Z,42.07
2019-04-14T23:11:09.291Z,40.48
2019-04-14T23:16:23.437Z,41.20
2019-04-14T23:21:34.834Z,39.97
2019-04-14T23:26:51.466Z,38.33
2019-04-14T23:31:43.769Z,43.60
2019-04-14T23:36:47.353Z,38.87
2019-04-14T23:41:51.141Z,46.55
2019-04-14T23:46:54.739Z,51.10
2019-04-14T23:51:58.404Z,55.57
2019-04-14T23:57:06.156Z,38.30
